Terminal Aerodrome Forecast
Issued by NWS

Home | Current Version | Previous Version | Text Only | Print | Product List | Glossary On
Versions: 1 2 3 4 5 6 7 8 9 10 11 12 13 14 15 16 17 18 19 20 21 22
202
FTUS43 KGRR 032340
TAFJXN
TAF
KJXN 032340Z 0400/0424 28005KT P6SM OVC025
     FM040300 VRB03KT P6SM BKN050
     FM041800 15006KT 4SM -SN OVC025
     FM042000 15008KT 1 1/2SM -SN OVC015=

USA.gov is the U.S. government's official web portal to all federal, state and local government web resources and services.